createdAt,value
2022-11-10T00:02:36.992Z,10.69
2022-11-10T00:05:22.166Z,10.24
2022-11-10T00:08:20.280Z,10.05
2022-11-10T00:11:09.171Z,10.10
2022-11-10T00:14:13.224Z,10.35
2022-11-10T00:17:05.475Z,10.57
2022-11-10T00:19:51.049Z,10.70
2022-11-10T00:22:39.840Z,10.56
2022-11-10T00:25:26.951Z,10.38
2022-11-10T00:28:12.028Z,10.57
2022-11-10T00:30:57.458Z,10.12
2022-11-10T00:33:44.317Z,10.61
2022-11-10T00:36:30.072Z,10.33
2022-11-10T00:39:15.156Z,10.60
2022-11-10T00:42:00.412Z,10.38
2022-11-10T00:44:46.637Z,10.31
2022-11-10T00:47:31.601Z,10.31
2022-11-10T00:50:16.894Z,10.16
2022-11-10T00:53:02.228Z,10.44
2022-11-10T00:55:48.654Z,10.39
2022-11-10T00:58:33.918Z,10.41
2022-11-10T01:01:21.181Z,10.41
2022-11-10T01:04:06.912Z,10.24
2022-11-10T01:06:52.807Z,10.54
2022-11-10T01:09:38.540Z,10.17
2022-11-10T01:12:23.655Z,10.25
2022-11-10T01:15:09.600Z,10.53
2022-11-10T01:17:55.988Z,10.48
2022-11-10T01:20:40.865Z,10.35
2022-11-10T01:23:26.210Z,10.51
2022-11-10T01:26:11.701Z,10.56
2022-11-10T01:28:57.372Z,10.50
2022-11-10T01:31:42.738Z,10.60
2022-11-10T01:34:27.914Z,10.45
2022-11-10T01:37:13.336Z,10.30
2022-11-10T01:39:58.453Z,9.98
2022-11-10T01:42:55.178Z,10.09
2022-11-10T01:45:52.281Z,9.92
2022-11-10T01:48:59.011Z,10.10
2022-11-10T01:51:54.591Z,10.39
2022-11-10T01:54:45.853Z,9.95
2022-11-10T01:57:31.638Z,10.40
2022-11-10T02:00:20.277Z,10.28
2022-11-10T02:03:56.245Z,10.29
2022-11-10T02:06:43.802Z,10.60
2022-11-10T02:09:29.352Z,10.39
2022-11-10T02:12:15.514Z,10.77
2022-11-10T02:15:00.596Z,10.95
2022-11-10T02:17:47.205Z,10.62
2022-11-10T02:20:32.581Z,10.62
2022-11-10T02:23:29.966Z,10.86
2022-11-10T02:26:18.446Z,10.19
2022-11-10T02:29:03.740Z,10.77
2022-11-10T02:31:49.021Z,10.73
2022-11-10T02:34:34.245Z,11.03
2022-11-10T02:37:19.408Z,10.96
2022-11-10T02:40:05.365Z,10.38
2022-11-10T02:42:50.490Z,10.43
2022-11-10T02:45:35.657Z,10.18
2022-11-10T02:48:20.887Z,10.51
2022-11-10T02:51:06.385Z,10.75
2022-11-10T02:53:51.804Z,10.41
2022-11-10T02:56:37.132Z,10.26
2022-11-10T02:59:22.317Z,10.39
2022-11-10T03:02:07.571Z,10.82
2022-11-10T03:04:52.798Z,10.35
2022-11-10T03:07:38.233Z,10.35
2022-11-10T03:10:23.350Z,10.58
2022-11-10T03:13:08.560Z,10.64
2022-11-10T03:15:53.839Z,10.30
2022-11-10T03:18:39.185Z,10.63
2022-11-10T03:21:24.592Z,10.85
2022-11-10T03:24:09.855Z,10.68
2022-11-10T03:26:54.956Z,10.45
2022-11-10T03:29:40.173Z,11.01
2022-11-10T03:32:25.610Z,10.78
2022-11-10T03:35:11.596Z,10.82
2022-11-10T03:37:56.739Z,10.71
2022-11-10T03:41:04.271Z,10.41
2022-11-10T03:43:47.251Z,10.78
2022-11-10T03:46:32.465Z,10.90
2022-11-10T03:49:17.795Z,10.47
2022-11-10T03:52:03.022Z,10.63
2022-11-10T03:54:48.219Z,10.71
2022-11-10T03:57:33.622Z,10.46
2022-11-10T04:00:18.933Z,9.96
2022-11-10T04:03:04.220Z,10.04
2022-11-10T04:06:07.804Z,10.13
2022-11-10T04:08:59.044Z,10.19
2022-11-10T04:12:02.434Z,10.05
2022-11-10T04:15:06.261Z,10.14
2022-11-10T04:17:51.754Z,10.08
2022-11-10T04:20:37.029Z,9.82
2022-11-10T04:23:26.730Z,9.80
2022-11-10T04:26:28.782Z,10.10
2022-11-10T04:29:15.009Z,10.03
2022-11-10T04:32:00.104Z,9.92
2022-11-10T04:34:45.187Z,10.08
2022-11-10T04:37:30.492Z,10.24
2022-11-10T04:40:16.008Z,10.15
2022-11-10T04:43:01.197Z,10.36
2022-11-10T04:45:46.581Z,10.11
2022-11-10T04:48:33.177Z,10.20
2022-11-10T04:51:19.194Z,10.21
2022-11-10T04:54:05.504Z,10.37
2022-11-10T04:56:50.664Z,10.27
2022-11-10T04:59:36.115Z,10.33
2022-11-10T05:02:21.344Z,10.38
2022-11-10T05:05:06.993Z,10.38
2022-11-10T05:07:51.982Z,10.47
2022-11-10T05:10:38.313Z,10.09
2022-11-10T05:13:23.632Z,10.34
2022-11-10T05:16:09.804Z,10.25
2022-11-10T05:18:56.045Z,9.89
2022-11-10T05:21:41.613Z,9.84
2022-11-10T05:24:26.873Z,10.06
2022-11-10T05:27:12.189Z,9.90
2022-11-10T05:29:57.642Z,9.87
2022-11-10T05:32:42.994Z,9.93
2022-11-10T05:35:31.700Z,9.70
2022-11-10T05:38:17.947Z,9.74
2022-11-10T05:41:03.255Z,9.73
2022-11-10T05:43:49.123Z,9.95
2022-11-10T05:46:34.465Z,9.87
2022-11-10T05:49:19.891Z,9.94
2022-11-10T05:52:05.127Z,9.91
2022-11-10T05:54:50.360Z,9.79
2022-11-10T05:57:35.593Z,9.83
2022-11-10T06:00:23.526Z,9.62
2022-11-10T06:03:14.772Z,9.76
2022-11-10T06:06:00.031Z,9.60
2022-11-10T06:08:45.237Z,9.66
2022-11-10T06:11:30.565Z,9.54
2022-11-10T06:14:15.873Z,9.58
2022-11-10T06:17:01.189Z,9.56
2022-11-10T06:19:47.237Z,9.87
2022-11-10T06:22:32.185Z,9.70
2022-11-10T06:25:17.735Z,9.44
2022-11-10T06:28:04.294Z,9.24
2022-11-10T06:30:49.567Z,9.79
2022-11-10T06:33:35.099Z,9.54
2022-11-10T06:36:20.288Z,9.44
2022-11-10T06:39:05.643Z,9.53
2022-11-10T06:41:51.004Z,9.49
2022-11-10T06:44:38.267Z,9.41
2022-11-10T06:47:23.660Z,9.47
2022-11-10T06:50:09.989Z,9.48
2022-11-10T06:53:00.461Z,9.64
2022-11-10T06:55:45.465Z,9.66
2022-11-10T06:58:33.696Z,9.87
2022-11-10T07:01:22.467Z,9.60
2022-11-10T07:04:19.566Z,9.48
2022-11-10T07:07:08.653Z,9.78
2022-11-10T07:09:53.648Z,9.56
2022-11-10T07:12:38.999Z,9.61
2022-11-10T07:15:30.125Z,9.82
2022-11-10T07:18:15.132Z,9.70
2022-11-10T07:21:06.113Z,9.66
2022-11-10T07:23:51.243Z,9.95
2022-11-10T07:26:36.442Z,9.82
2022-11-10T07:29:21.834Z,9.97
2022-11-10T07:32:07.232Z,9.72
2022-11-10T07:34:52.477Z,9.83
2022-11-10T07:37:37.880Z,9.90
2022-11-10T07:40:23.427Z,9.86
2022-11-10T07:43:08.592Z,9.95
2022-11-10T07:45:53.949Z,10.02
2022-11-10T07:48:39.284Z,10.28
2022-11-10T07:51:26.942Z,10.21
2022-11-10T07:54:11.920Z,10.29
2022-11-10T07:56:57.335Z,10.27
2022-11-10T07:59:42.697Z,10.17
2022-11-10T08:02:27.917Z,10.18
2022-11-10T08:05:13.247Z,10.33
2022-11-10T08:08:00.116Z,10.38
2022-11-10T08:10:45.628Z,10.53
2022-11-10T08:13:30.678Z,10.68
2022-11-10T08:16:15.902Z,10.55
2022-11-10T08:19:01.254Z,10.89
2022-11-10T08:21:46.648Z,10.69
2022-11-10T08:24:32.090Z,10.99
2022-11-10T08:27:17.215Z,10.25
2022-11-10T08:30:02.752Z,10.62
2022-11-10T08:32:53.150Z,10.48
2022-11-10T08:35:44.318Z,10.72
2022-11-10T08:38:29.530Z,10.81
2022-11-10T08:41:16.263Z,10.81
2022-11-10T08:44:01.585Z,10.94
2022-11-10T08:46:47.172Z,10.53
2022-11-10T08:49:32.604Z,10.88
2022-11-10T08:52:17.988Z,11.06
2022-11-10T08:55:03.433Z,10.81
2022-11-10T08:57:49.135Z,10.55
2022-11-10T09:00:34.959Z,10.67
2022-11-10T09:03:23.769Z,10.71
2022-11-10T09:06:09.344Z,10.54
2022-11-10T09:08:54.617Z,10.44
2022-11-10T09:11:39.868Z,10.72
2022-11-10T09:14:24.982Z,10.68
2022-11-10T09:17:10.195Z,10.95
2022-11-10T09:19:55.660Z,10.83
2022-11-10T09:22:40.891Z,11.05
2022-11-10T09:25:26.344Z,10.88
2022-11-10T09:28:13.330Z,10.82
2022-11-10T09:30:58.485Z,10.96
2022-11-10T09:33:43.868Z,10.77
2022-11-10T09:36:29.037Z,10.80
2022-11-10T09:39:15.200Z,10.96
2022-11-10T09:42:00.181Z,11.18
2022-11-10T09:45:00.045Z,10.88
2022-11-10T09:47:58.111Z,10.94
2022-11-10T09:51:12.934Z,10.87
2022-11-10T09:54:38.935Z,11.35
2022-11-10T09:57:26.543Z,11.42
2022-11-10T10:00:17.368Z,11.31
2022-11-10T10:03:06.630Z,11.22
2022-11-10T10:06:12.309Z,10.80
2022-11-10T10:09:42.376Z,11.02
2022-11-10T10:12:54.846Z,11.45
2022-11-10T10:16:01.605Z,11.43
2022-11-10T10:18:58.773Z,11.13
2022-11-10T10:21:59.060Z,11.65
2022-11-10T10:24:44.368Z,11.47
2022-11-10T10:27:31.738Z,11.39
2022-11-10T10:30:21.043Z,11.47
2022-11-10T10:36:23.548Z,11.59
2022-11-10T10:39:15.631Z,11.82
2022-11-10T10:42:01.032Z,12.10
2022-11-10T10:45:17.078Z,11.97
2022-11-10T10:48:02.374Z,12.05
2022-11-10T10:50:49.092Z,11.62
2022-11-10T10:53:47.179Z,11.31
2022-11-10T10:56:33.317Z,11.80
2022-11-10T10:59:26.056Z,11.67
2022-11-10T11:02:25.798Z,11.65
2022-11-10T11:05:16.115Z,11.50
2022-11-10T11:08:02.691Z,11.88
2022-11-10T11:10:47.932Z,11.47
2022-11-10T11:13:33.425Z,11.95
2022-11-10T11:16:19.009Z,11.87
2022-11-10T11:19:04.251Z,11.57
2022-11-10T11:22:03.030Z,11.61
2022-11-10T11:25:18.426Z,11.63
2022-11-10T11:28:30.401Z,11.46
2022-11-10T11:31:24.477Z,11.89
2022-11-10T11:34:20.834Z,11.55
2022-11-10T11:37:23.957Z,11.54
2022-11-10T11:40:34.043Z,12.05
2022-11-10T11:44:06.557Z,11.86
2022-11-10T11:47:03.246Z,11.78
2022-11-10T11:50:19.416Z,11.61
2022-11-10T11:53:26.022Z,11.48
2022-11-10T11:56:22.212Z,11.62
2022-11-10T11:59:31.550Z,11.88
2022-11-10T12:02:53.184Z,11.54
2022-11-10T12:06:00.810Z,11.89
2022-11-10T12:09:06.519Z,12.16
2022-11-10T12:12:21.809Z,11.89
2022-11-10T12:15:34.773Z,11.87
2022-11-10T12:18:29.681Z,11.61
2022-11-10T12:21:48.135Z,12.09
2022-11-10T12:24:57.565Z,12.19
2022-11-10T12:28:16.043Z,12.09
2022-11-10T12:31:04.063Z,12.46
2022-11-10T12:33:58.106Z,12.51
2022-11-10T12:36:43.531Z,12.33
2022-11-10T12:39:47.629Z,12.21
2022-11-10T12:42:38.548Z,12.42
2022-11-10T12:45:33.778Z,12.06
2022-11-10T12:48:20.751Z,12.15
2022-11-10T12:51:45.427Z,11.82
2022-11-10T12:54:30.558Z,12.00
2022-11-10T12:57:25.354Z,12.01
2022-11-10T13:00:29.098Z,11.73
2022-11-10T13:03:25.447Z,11.62
2022-11-10T13:06:26.021Z,11.93
2022-11-10T13:09:23.781Z,12.00
2022-11-10T13:12:20.593Z,12.49
2022-11-10T13:15:35.163Z,12.27
2022-11-10T13:18:32.388Z,12.09
2022-11-10T13:21:17.446Z,11.80
2022-11-10T13:24:02.802Z,11.97
2022-11-10T13:26:55.967Z,12.06
2022-11-10T13:29:47.068Z,12.10
2022-11-10T13:32:33.691Z,11.31
2022-11-10T13:35:28.076Z,11.96
2022-11-10T13:38:31.656Z,11.80
2022-11-10T13:41:16.690Z,11.73
2022-11-10T13:44:03.061Z,11.61
2022-11-10T13:46:56.972Z,11.96
2022-11-10T13:49:58.984Z,11.82
2022-11-10T13:53:21.509Z,11.62
2022-11-10T13:56:18.677Z,11.80
2022-11-10T13:59:22.986Z,11.32
2022-11-10T14:02:32.906Z,11.12
2022-11-10T14:05:30.828Z,11.58
2022-11-10T14:08:21.310Z,11.87
2022-11-10T14:11:15.996Z,12.07
2022-11-10T14:14:18.992Z,11.73
2022-11-10T14:17:13.168Z,11.83
2022-11-10T14:20:03.832Z,11.70
2022-11-10T14:22:53.779Z,11.23
2022-11-10T14:25:43.437Z,11.50
2022-11-10T14:28:38.062Z,11.62
2022-11-10T14:31:27.068Z,11.27
2022-11-10T14:34:16.764Z,11.51
2022-11-10T14:37:03.600Z,11.38
2022-11-10T14:39:54.969Z,11.76
2022-11-10T14:42:40.310Z,11.57
2022-11-10T14:45:28.070Z,11.74
2022-11-10T14:48:20.527Z,11.29
2022-11-10T14:51:27.764Z,11.40
2022-11-10T14:54:16.971Z,11.43
2022-11-10T14:57:02.608Z,11.59
2022-11-10T14:59:48.213Z,11.42
2022-11-10T15:02:33.688Z,11.62
2022-11-10T15:05:19.251Z,11.31
2022-11-10T15:08:05.896Z,11.67
2022-11-10T15:10:53.254Z,11.60
2022-11-10T15:13:39.428Z,11.69
2022-11-10T15:16:30.196Z,11.89
2022-11-10T15:19:26.893Z,12.09
2022-11-10T15:22:31.241Z,11.71
2022-11-10T15:25:20.197Z,11.77
2022-11-10T15:28:23.255Z,11.87
2022-11-10T15:31:13.888Z,12.02
2022-11-10T15:34:06.768Z,12.06
2022-11-10T15:37:09.557Z,11.78
2022-11-10T15:40:33.151Z,11.82
2022-11-10T15:43:26.339Z,11.92
2022-11-10T15:46:18.798Z,11.86
2022-11-10T15:49:09.354Z,12.01
2022-11-10T15:52:21.834Z,11.78
2022-11-10T15:55:19.572Z,11.88
2022-11-10T15:58:11.906Z,11.98
2022-11-10T16:00:57.508Z,12.17
2022-11-10T16:03:43.338Z,11.62
2022-11-10T16:06:30.845Z,11.83
2022-11-10T16:09:16.294Z,11.67
2022-11-10T16:12:01.756Z,11.75
2022-11-10T16:14:51.515Z,11.93
2022-11-10T16:17:37.046Z,11.87
2022-11-10T16:20:22.144Z,11.98
2022-11-10T16:23:07.379Z,11.89
2022-11-10T16:25:55.332Z,11.62
2022-11-10T16:28:44.126Z,11.97
2022-11-10T16:31:30.286Z,11.99
2022-11-10T16:34:18.629Z,11.92
2022-11-10T16:37:03.689Z,12.30
2022-11-10T16:39:49.132Z,11.98
2022-11-10T16:42:37.143Z,11.84
2022-11-10T16:45:24.484Z,11.97
2022-11-10T16:48:12.994Z,12.10
2022-11-10T16:51:01.682Z,12.31
2022-11-10T16:53:47.471Z,12.28
2022-11-10T16:56:34.326Z,11.99
2022-11-10T16:59:19.611Z,12.02
2022-11-10T17:02:12.140Z,12.25
2022-11-10T17:04:57.214Z,12.08
2022-11-10T17:07:42.695Z,12.02
2022-11-10T17:10:30.197Z,12.21
2022-11-10T17:13:15.529Z,11.88
2022-11-10T17:16:09.339Z,12.07
2022-11-10T17:18:56.335Z,11.92
2022-11-10T17:21:42.165Z,11.83
2022-11-10T17:24:27.529Z,12.05
2022-11-10T17:27:16.819Z,11.89
2022-11-10T17:30:04.829Z,12.17
2022-11-10T17:33:04.735Z,12.10
2022-11-10T17:35:52.904Z,12.25
2022-11-10T17:38:38.580Z,11.95
2022-11-10T17:41:23.664Z,12.09
2022-11-10T17:44:16.346Z,11.84
2022-11-10T17:47:01.495Z,12.17
2022-11-10T17:49:47.012Z,12.02
2022-11-10T17:52:32.181Z,11.88
2022-11-10T17:55:23.081Z,12.09
2022-11-10T17:58:13.320Z,11.81
2022-11-10T18:01:01.122Z,11.77
2022-11-10T18:03:46.825Z,12.12
2022-11-10T18:06:32.422Z,11.96
2022-11-10T18:09:17.645Z,12.26
2022-11-10T18:12:02.889Z,11.77
2022-11-10T18:14:48.087Z,12.13
2022-11-10T18:17:33.500Z,11.97
2022-11-10T18:20:18.924Z,12.09
2022-11-10T18:23:08.267Z,11.81
2022-11-10T18:25:53.858Z,11.86
2022-11-10T18:28:39.933Z,11.86
2022-11-10T18:31:24.982Z,11.98
2022-11-10T18:34:12.546Z,12.05
2022-11-10T18:36:57.921Z,11.89
2022-11-10T18:39:45.566Z,11.88
2022-11-10T18:42:31.862Z,11.71
2022-11-10T18:45:16.943Z,11.95
2022-11-10T18:48:03.605Z,12.02
2022-11-10T18:50:48.920Z,11.58
2022-11-10T18:53:38.256Z,11.85
2022-11-10T18:56:24.996Z,12.17
2022-11-10T18:59:11.553Z,12.04
2022-11-10T19:01:57.186Z,12.15
2022-11-10T19:04:42.644Z,12.24
2022-11-10T19:07:29.018Z,12.20
2022-11-10T19:10:14.056Z,11.98
2022-11-10T19:13:04.908Z,11.92
2022-11-10T19:15:50.396Z,12.30
2022-11-10T19:18:38.473Z,12.31
2022-11-10T19:21:29.996Z,11.87
2022-11-10T19:24:25.829Z,12.15
2022-11-10T19:27:15.743Z,11.83
2022-11-10T19:30:01.031Z,11.83
2022-11-10T19:32:46.480Z,11.88
2022-11-10T19:35:33.030Z,12.04
2022-11-10T19:38:18.065Z,11.78
2022-11-10T19:41:11.524Z,11.89
2022-11-10T19:43:59.420Z,11.71
2022-11-10T19:46:46.699Z,11.66
2022-11-10T19:49:32.380Z,11.71
2022-11-10T19:52:17.475Z,11.53
2022-11-10T19:55:02.844Z,11.65
2022-11-10T19:57:48.087Z,11.73
2022-11-10T20:00:33.227Z,11.84
2022-11-10T20:03:18.384Z,11.77
2022-11-10T20:06:12.447Z,11.48
2022-11-10T20:08:57.383Z,11.80
2022-11-10T20:11:46.083Z,11.73
2022-11-10T20:14:30.943Z,11.67
2022-11-10T20:17:16.410Z,11.76
2022-11-10T20:20:01.678Z,11.51
2022-11-10T20:22:46.951Z,11.65
2022-11-10T20:25:33.176Z,11.54
2022-11-10T20:28:18.222Z,11.59
2022-11-10T20:31:10.163Z,11.68
2022-11-10T20:33:56.337Z,11.82
2022-11-10T20:36:41.386Z,11.69
2022-11-10T20:39:26.636Z,11.77
2022-11-10T20:42:13.248Z,11.92
2022-11-10T20:45:00.741Z,12.14
2022-11-10T20:47:45.949Z,12.04
2022-11-10T20:50:31.084Z,12.16
2022-11-10T20:53:16.358Z,11.93
2022-11-10T20:56:02.752Z,12.31
2022-11-10T20:58:49.092Z,12.04
2022-11-10T21:01:35.340Z,11.83
2022-11-10T21:04:20.850Z,11.67
2022-11-10T21:07:06.258Z,11.63
2022-11-10T21:09:51.593Z,11.93
2022-11-10T21:12:52.003Z,11.89
2022-11-10T21:15:39.355Z,12.04
2022-11-10T21:18:28.574Z,11.85
2022-11-10T21:21:27.646Z,11.90
2022-11-10T21:24:13.056Z,12.03
2022-11-10T21:26:58.838Z,11.75
2022-11-10T21:29:43.913Z,11.86
2022-11-10T21:32:29.211Z,11.83
2022-11-10T21:35:15.227Z,11.98
2022-11-10T21:38:00.224Z,11.94
2022-11-10T21:40:45.544Z,11.83
2022-11-10T21:43:30.958Z,11.81
2022-11-10T21:46:16.147Z,11.61
2022-11-10T21:49:07.185Z,11.62
2022-11-10T21:51:53.201Z,11.63
2022-11-10T21:54:38.344Z,11.90
2022-11-10T21:57:23.475Z,11.69
2022-11-10T22:00:10.935Z,12.00
2022-11-10T22:03:00.880Z,11.87
2022-11-10T22:05:46.327Z,11.84
2022-11-10T22:08:32.086Z,11.86
2022-11-10T22:11:38.146Z,12.11
2022-11-10T22:14:42.235Z,11.88
2022-11-10T22:17:46.018Z,11.80
2022-11-10T22:20:31.377Z,11.81
2022-11-10T22:23:16.651Z,11.83
2022-11-10T22:26:04.604Z,11.98
2022-11-10T22:28:49.793Z,12.01
2022-11-10T22:31:35.051Z,12.21
2022-11-10T22:34:20.655Z,11.95
2022-11-10T22:37:06.006Z,11.86
2022-11-10T22:40:09.798Z,11.92
2022-11-10T22:43:13.716Z,12.00
2022-11-10T22:46:04.964Z,12.06
2022-11-10T22:48:50.124Z,12.39
2022-11-10T22:51:36.996Z,12.25
2022-11-10T22:54:24.687Z,12.24
2022-11-10T22:57:09.689Z,12.11
2022-11-10T22:59:54.916Z,12.20
2022-11-10T23:02:40.152Z,12.12
2022-11-10T23:05:25.573Z,11.99
2022-11-10T23:08:10.707Z,12.14
2022-11-10T23:11:12.069Z,12.26
2022-11-10T23:13:57.328Z,12.13
2022-11-10T23:16:42.577Z,12.11
2022-11-10T23:19:27.839Z,12.44
2022-11-10T23:22:13.187Z,12.15
2022-11-10T23:24:58.450Z,11.98
2022-11-10T23:27:43.767Z,12.10
2022-11-10T23:30:29.093Z,12.28
2022-11-10T23:33:14.481Z,12.00
2022-11-10T23:35:59.742Z,12.15
2022-11-10T23:38:45.760Z,12.03
2022-11-10T23:41:31.177Z,11.83
2022-11-10T23:44:16.602Z,12.21
2022-11-10T23:47:01.833Z,12.16
2022-11-10T23:49:47.142Z,12.12
2022-11-10T23:52:32.434Z,12.15
2022-11-10T23:55:17.970Z,12.36
2022-11-10T23:58:03.585Z,12.16
